sensor_id;sensor_type;location;lat;lon;timestamp;pressure;altitude;pressure_sealevel;temperature;humidity
48200;BME280;33990;44.602;10.976;2023-07-30T00:00:15;100636.72;;;27.47;52.32
48200;BME280;33990;44.602;10.976;2023-07-30T00:02:42;100636.72;;;27.47;52.20
48200;BME280;33990;44.602;10.976;2023-07-30T00:05:09;100652.00;;;27.48;52.12
48200;BME280;33990;44.602;10.976;2023-07-30T00:07:37;100652.84;;;27.49;52.58
48200;BME280;33990;44.602;10.976;2023-07-30T00:10:05;100656.41;;;27.49;52.37
48200;BME280;33990;44.602;10.976;2023-07-30T00:12:32;100650.13;;;27.49;52.10
48200;BME280;33990;44.602;10.976;2023-07-30T00:15:00;100652.84;;;27.49;52.19
48200;BME280;33990;44.602;10.976;2023-07-30T00:17:27;100656.41;;;27.49;52.50
48200;BME280;33990;44.602;10.976;2023-07-30T00:19:54;100655.34;;;27.50;52.19
48200;BME280;33990;44.602;10.976;2023-07-30T00:22:22;100657.06;;;27.51;52.33
48200;BME280;33990;44.602;10.976;2023-07-30T00:24:50;100647.88;;;27.52;52.51
48200;BME280;33990;44.602;10.976;2023-07-30T00:27:17;100647.88;;;27.52;52.59
48200;BME280;33990;44.602;10.976;2023-07-30T00:29:49;100647.03;;;27.52;52.50
48200;BME280;33990;44.602;10.976;2023-07-30T00:32:16;100634.28;;;27.52;52.43
48200;BME280;33990;44.602;10.976;2023-07-30T00:34:44;100635.13;;;27.53;52.23
48200;BME280;33990;44.602;10.976;2023-07-30T00:37:11;100627.78;;;27.53;52.29
48200;BME280;33990;44.602;10.976;2023-07-30T00:39:39;100637.63;;;27.54;52.50
48200;BME280;33990;44.602;10.976;2023-07-30T00:42:06;100632.19;;;27.54;52.63
48200;BME280;33990;44.602;10.976;2023-07-30T00:44:33;100637.63;;;27.54;52.38
48200;BME280;33990;44.602;10.976;2023-07-30T00:47:02;100652.94;;;27.55;52.07
48200;BME280;33990;44.602;10.976;2023-07-30T00:49:30;100673.66;;;27.56;52.24
48200;BME280;33990;44.602;10.976;2023-07-30T00:51:58;100679.09;;;27.56;52.19
48200;BME280;33990;44.602;10.976;2023-07-30T00:54:26;100685.38;;;27.57;52.65
48200;BME280;33990;44.602;10.976;2023-07-30T00:56:53;100707.13;;;27.57;52.50
48200;BME280;33990;44.602;10.976;2023-07-30T00:59:21;100709.00;;;27.56;52.23
48200;BME280;33990;44.602;10.976;2023-07-30T01:01:51;100707.13;;;27.57;52.63
48200;BME280;33990;44.602;10.976;2023-07-30T01:04:18;100725.13;;;27.58;52.50
48200;BME280;33990;44.602;10.976;2023-07-30T01:06:46;100704.19;;;27.58;52.39
48200;BME280;33990;44.602;10.976;2023-07-30T01:09:13;100696.03;;;27.58;52.64
48200;BME280;33990;44.602;10.976;2023-07-30T01:11:41;100693.31;;;27.58;52.60
48200;BME280;33990;44.602;10.976;2023-07-30T01:14:10;100697.75;;;27.59;52.62
48200;BME280;33990;44.602;10.976;2023-07-30T01:16:38;100686.88;;;27.59;52.45
48200;BME280;33990;44.602;10.976;2023-07-30T01:19:06;100695.03;;;27.59;52.63
48200;BME280;33990;44.602;10.976;2023-07-30T01:21:34;100706.75;;;27.60;52.24
48200;BME280;33990;44.602;10.976;2023-07-30T01:24:03;100698.59;;;27.60;52.40
48200;BME280;33990;44.602;10.976;2023-07-30T01:26:46;100685.84;;;27.60;52.29
48200;BME280;33990;44.602;10.976;2023-07-30T01:29:22;100684.16;;;27.59;52.30
48200;BME280;33990;44.602;10.976;2023-07-30T01:31:56;100687.72;;;27.60;52.35
48200;BME280;33990;44.602;10.976;2023-07-30T01:34:27;100704.03;;;27.60;52.71
48200;BME280;33990;44.602;10.976;2023-07-30T01:36:55;100702.16;;;27.60;52.49
48200;BME280;33990;44.602;10.976;2023-07-30T01:39:24;100700.28;;;27.61;52.35
48200;BME280;33990;44.602;10.976;2023-07-30T01:41:55;100706.53;;;27.61;52.25
48200;BME280;33990;44.602;10.976;2023-07-30T01:44:22;100706.53;;;27.61;52.16
48200;BME280;33990;44.602;10.976;2023-07-30T01:46:50;100707.38;;;27.62;52.62
48200;BME280;33990;44.602;10.976;2023-07-30T01:49:17;100736.28;;;27.63;52.31
48200;BME280;33990;44.602;10.976;2023-07-30T01:51:44;100744.44;;;27.63;52.41
48200;BME280;33990;44.602;10.976;2023-07-30T01:54:13;100745.28;;;27.64;52.30
48200;BME280;33990;44.602;10.976;2023-07-30T01:56:40;100739.84;;;27.64;52.42
48200;BME280;33990;44.602;10.976;2023-07-30T01:59:07;100739.00;;;27.63;52.36
48200;BME280;33990;44.602;10.976;2023-07-30T02:01:35;100728.13;;;27.63;52.71
48200;BME280;33990;44.602;10.976;2023-07-30T02:04:03;100715.53;;;27.62;52.47
48200;BME280;33990;44.602;10.976;2023-07-30T02:06:30;100713.66;;;27.63;52.63
48200;BME280;33990;44.602;10.976;2023-07-30T02:08:58;100709.28;;;27.61;52.83
48200;BME280;33990;44.602;10.976;2023-07-30T02:11:25;100712.81;;;27.62;52.37
48200;BME280;33990;44.602;10.976;2023-07-30T02:13:52;100709.09;;;27.63;52.46
48200;BME280;33990;44.602;10.976;2023-07-30T02:16:20;100706.19;;;27.65;52.46
48200;BME280;33990;44.602;10.976;2023-07-30T02:18:47;100698.00;;;27.65;52.72
48200;BME280;33990;44.602;10.976;2023-07-30T02:21:15;100708.69;;;27.66;52.39
48200;BME280;33990;44.602;10.976;2023-07-30T02:23:42;100698.84;;;27.65;52.57
48200;BME280;33990;44.602;10.976;2023-07-30T02:26:10;100696.13;;;27.65;52.83
48200;BME280;33990;44.602;10.976;2023-07-30T02:28:37;100699.69;;;27.66;52.86
48200;BME280;33990;44.602;10.976;2023-07-30T02:31:05;100715.19;;;27.65;52.70
48200;BME280;33990;44.602;10.976;2023-07-30T02:33:32;100719.78;;;27.65;52.63
48200;BME280;33990;44.602;10.976;2023-07-30T02:36:00;100714.13;;;27.66;52.64
48200;BME280;33990;44.602;10.976;2023-07-30T02:38:27;100709.53;;;27.67;53.13
48200;BME280;33990;44.602;10.976;2023-07-30T02:40:55;100717.69;;;27.67;53.06
48200;BME280;33990;44.602;10.976;2023-07-30T02:43:23;100716.00;;;27.66;52.78
48200;BME280;33990;44.602;10.976;2023-07-30T02:45:50;100712.25;;;27.67;53.01
48200;BME280;33990;44.602;10.976;2023-07-30T02:48:17;100713.97;;;27.68;53.04
48200;BME280;33990;44.602;10.976;2023-07-30T02:50:45;100706.81;;;27.67;53.01
48200;BME280;33990;44.602;10.976;2023-07-30T02:53:12;100717.69;;;27.67;53.08
48200;BME280;33990;44.602;10.976;2023-07-30T02:55:40;100701.38;;;27.67;53.26
48200;BME280;33990;44.602;10.976;2023-07-30T02:58:07;100693.22;;;27.67;52.91
48200;BME280;33990;44.602;10.976;2023-07-30T03:00:34;100694.09;;;27.67;52.91
48200;BME280;33990;44.602;10.976;2023-07-30T03:03:02;100692.38;;;27.66;53.02
48200;BME280;33990;44.602;10.976;2023-07-30T03:05:30;100698.66;;;27.67;53.29
48200;BME280;33990;44.602;10.976;2023-07-30T03:07:57;100697.66;;;27.68;53.28
48200;BME280;33990;44.602;10.976;2023-07-30T03:10:25;100692.22;;;27.68;53.27
48200;BME280;33990;44.602;10.976;2023-07-30T03:12:52;100698.47;;;27.68;53.40
48200;BME280;33990;44.602;10.976;2023-07-30T03:15:20;100702.25;;;27.67;53.39
48200;BME280;33990;44.602;10.976;2023-07-30T03:17:47;100694.94;;;27.68;53.03
48200;BME280;33990;44.602;10.976;2023-07-30T03:20:15;100688.44;;;27.69;53.02
48200;BME280;33990;44.602;10.976;2023-07-30T03:22:42;100686.75;;;27.68;53.05
48200;BME280;33990;44.602;10.976;2023-07-30T03:25:09;100691.16;;;27.69;53.37
48200;BME280;33990;44.602;10.976;2023-07-30T03:27:37;100693.88;;;27.69;53.36
48200;BME280;33990;44.602;10.976;2023-07-30T03:30:05;100698.47;;;27.68;53.39
48200;BME280;33990;44.602;10.976;2023-07-30T03:32:32;100694.72;;;27.69;53.63
48200;BME280;33990;44.602;10.976;2023-07-30T03:35:00;100699.31;;;27.69;53.36
48200;BME280;33990;44.602;10.976;2023-07-30T03:37:27;100699.31;;;27.69;53.04
48200;BME280;33990;44.602;10.976;2023-07-30T03:39:54;100689.28;;;27.69;53.12
48200;BME280;33990;44.602;10.976;2023-07-30T03:42:22;100696.41;;;27.70;53.15
48200;BME280;33990;44.602;10.976;2023-07-30T03:44:49;100698.28;;;27.70;53.20
48200;BME280;33990;44.602;10.976;2023-07-30T03:47:16;100695.56;;;27.70;53.53
48200;BME280;33990;44.602;10.976;2023-07-30T03:49:44;100699.31;;;27.69;53.51
48200;BME280;33990;44.602;10.976;2023-07-30T03:52:11;100697.44;;;27.69;53.21
48200;BME280;33990;44.602;10.976;2023-07-30T03:54:39;100703.72;;;27.70;53.24
48200;BME280;33990;44.602;10.976;2023-07-30T03:57:07;100706.44;;;27.70;53.56
48200;BME280;33990;44.602;10.976;2023-07-30T03:59:34;100695.56;;;27.70;53.25
48200;BME280;33990;44.602;10.976;2023-07-30T04:02:02;100701.00;;;27.70;53.20
48200;BME280;33990;44.602;10.976;2023-07-30T04:04:29;100699.13;;;27.70;53.62
48200;BME280;33990;44.602;10.976;2023-07-30T04:06:59;100690.97;;;27.70;53.48
48200;BME280;33990;44.602;10.976;2023-07-30T04:09:26;100696.41;;;27.70;53.47
48200;BME280;33990;44.602;10.976;2023-07-30T04:11:54;100693.69;;;27.70;53.13
48200;BME280;33990;44.602;10.976;2023-07-30T04:14:21;100690.97;;;27.70;53.49
48200;BME280;33990;44.602;10.976;2023-07-30T04:16:48;100695.56;;;27.70;53.16
48200;BME280;33990;44.602;10.976;2023-07-30T04:19:16;100681.97;;;27.70;53.47
48200;BME280;33990;44.602;10.976;2023-07-30T04:21:43;100680.91;;;27.71;53.38
48200;BME280;33990;44.602;10.976;2023-07-30T04:24:11;100678.41;;;27.69;53.45
48200;BME280;33990;44.602;10.976;2023-07-30T04:26:38;100674.84;;;27.69;53.05
48200;BME280;33990;44.602;10.976;2023-07-30T04:29:06;100681.97;;;27.70;53.45
48200;BME280;33990;44.602;10.976;2023-07-30T04:31:33;100680.91;;;27.71;53.31
48200;BME280;33990;44.602;10.976;2023-07-30T04:34:01;100684.69;;;27.70;53.01
48200;BME280;33990;44.602;10.976;2023-07-30T04:36:30;100687.41;;;27.70;53.25
48200;BME280;33990;44.602;10.976;2023-07-30T04:38:58;100682.81;;;27.70;53.40
48200;BME280;33990;44.602;10.976;2023-07-30T04:41:31;100685.53;;;27.70;53.11
48200;BME280;33990;44.602;10.976;2023-07-30T04:44:03;100679.25;;;27.70;53.01
48200;BME280;33990;44.602;10.976;2023-07-30T04:46:31;100681.97;;;27.70;53.15
48200;BME280;33990;44.602;10.976;2023-07-30T04:49:02;100690.97;;;27.70;53.37
48200;BME280;33990;44.602;10.976;2023-07-30T04:51:31;100684.50;;;27.71;53.42
48200;BME280;33990;44.602;10.976;2023-07-30T04:53:58;100683.63;;;27.71;53.39
48200;BME280;33990;44.602;10.976;2023-07-30T04:56:26;100687.22;;;27.71;53.22
48200;BME280;33990;44.602;10.976;2023-07-30T04:58:54;100683.63;;;27.71;53.13
48200;BME280;33990;44.602;10.976;2023-07-30T05:01:21;100693.50;;;27.72;53.11
48200;BME280;33990;44.602;10.976;2023-07-30T05:03:49;100676.34;;;27.71;53.31
48200;BME280;33990;44.602;10.976;2023-07-30T05:06:16;100684.31;;;27.73;53.33
48200;BME280;33990;44.602;10.976;2023-07-30T05:08:43;100688.25;;;27.70;53.18
48200;BME280;33990;44.602;10.976;2023-07-30T05:11:11;100692.66;;;27.71;53.56
48200;BME280;33990;44.602;10.976;2023-07-30T05:13:38;100695.38;;;27.71;53.33
48200;BME280;33990;44.602;10.976;2023-07-30T05:16:06;100690.78;;;27.72;53.54
48200;BME280;33990;44.602;10.976;2023-07-30T05:18:33;100695.38;;;27.71;53.22
48200;BME280;33990;44.602;10.976;2023-07-30T05:21:00;100706.28;;;27.71;53.51
48200;BME280;33990;44.602;10.976;2023-07-30T05:23:28;100709.81;;;27.72;53.55
48200;BME280;33990;44.602;10.976;2023-07-30T05:25:55;100721.53;;;27.72;53.52
48200;BME280;33990;44.602;10.976;2023-07-30T05:28:23;100725.09;;;27.73;53.29
48200;BME280;33990;44.602;10.976;2023-07-30T05:30:50;100721.53;;;27.72;53.47
48200;BME280;33990;44.602;10.976;2023-07-30T05:33:17;100719.66;;;27.73;53.35
48200;BME280;33990;44.602;10.976;2023-07-30T05:35:47;100722.38;;;27.73;53.23
48200;BME280;33990;44.602;10.976;2023-07-30T05:38:15;100727.81;;;27.73;53.67
48200;BME280;33990;44.602;10.976;2023-07-30T05:40:42;100736.84;;;27.73;53.55
48200;BME280;33990;44.602;10.976;2023-07-30T05:43:10;100730.56;;;27.73;53.47
48200;BME280;33990;44.602;10.976;2023-07-30T05:45:37;100728.69;;;27.73;53.61
48200;BME280;33990;44.602;10.976;2023-07-30T05:48:04;100739.59;;;27.73;53.52
48200;BME280;33990;44.602;10.976;2023-07-30T05:50:32;100737.69;;;27.74;53.60
48200;BME280;33990;44.602;10.976;2023-07-30T05:52:59;100744.81;;;27.75;53.52
48200;BME280;33990;44.602;10.976;2023-07-30T05:55:26;100736.66;;;27.75;53.43
48200;BME280;33990;44.602;10.976;2023-07-30T05:57:55;100739.59;;;27.73;53.77
48200;BME280;33990;44.602;10.976;2023-07-30T06:00:22;100742.97;;;27.75;53.31
48200;BME280;33990;44.602;10.976;2023-07-30T06:02:51;100750.25;;;27.75;53.41
48200;BME280;33990;44.602;10.976;2023-07-30T06:05:18;100740.41;;;27.74;53.34
48200;BME280;33990;44.602;10.976;2023-07-30T06:07:46;100744.81;;;27.75;53.63
48200;BME280;33990;44.602;10.976;2023-07-30T06:10:13;100753.84;;;27.75;53.30
48200;BME280;33990;44.602;10.976;2023-07-30T06:12:40;100750.25;;;27.75;53.37
48200;BME280;33990;44.602;10.976;2023-07-30T06:15:09;100760.31;;;27.74;53.54
48200;BME280;33990;44.602;10.976;2023-07-30T06:17:36;100766.59;;;27.75;53.26
48200;BME280;33990;44.602;10.976;2023-07-30T06:20:04;100759.28;;;27.75;53.19
48200;BME280;33990;44.602;10.976;2023-07-30T06:22:32;100763.69;;;27.76;53.21
48200;BME280;33990;44.602;10.976;2023-07-30T06:24:59;100772.69;;;27.77;53.20
48200;BME280;33990;44.602;10.976;2023-07-30T06:27:27;100761.81;;;27.77;53.59
48200;BME280;33990;44.602;10.976;2023-07-30T06:29:54;100756.38;;;27.77;53.34
48200;BME280;33990;44.602;10.976;2023-07-30T06:32:21;100760.78;;;27.78;53.10
48200;BME280;33990;44.602;10.976;2023-07-30T06:34:49;100766.22;;;27.78;53.39
48200;BME280;33990;44.602;10.976;2023-07-30T06:37:16;100768.75;;;27.79;53.46
48200;BME280;33990;44.602;10.976;2023-07-30T06:39:44;100764.16;;;27.80;53.53
48200;BME280;33990;44.602;10.976;2023-07-30T06:42:11;100769.59;;;27.80;53.58
48200;BME280;33990;44.602;10.976;2023-07-30T06:44:38;100762.28;;;27.80;53.16
48200;BME280;33990;44.602;10.976;2023-07-30T06:47:06;100768.56;;;27.81;53.61
48200;BME280;33990;44.602;10.976;2023-07-30T06:49:33;100768.56;;;27.81;53.65
48200;BME280;33990;44.602;10.976;2023-07-30T06:52:01;100771.28;;;27.81;53.47
48200;BME280;33990;44.602;10.976;2023-07-30T06:54:29;100768.56;;;27.81;53.65
48200;BME280;33990;44.602;10.976;2023-07-30T06:56:56;100769.78;;;27.78;53.65
48200;BME280;33990;44.602;10.976;2023-07-30T06:59:24;100765.75;;;27.74;53.43
48200;BME280;33990;44.602;10.976;2023-07-30T07:01:51;100767.53;;;27.67;53.38
48200;BME280;33990;44.602;10.976;2023-07-30T07:04:19;100763.84;;;27.60;53.48
48200;BME280;33990;44.602;10.976;2023-07-30T07:06:46;100762.72;;;27.54;53.60
48200;BME280;33990;44.602;10.976;2023-07-30T07:09:13;100758.03;;;27.48;53.51
48200;BME280;33990;44.602;10.976;2023-07-30T07:11:41;100755.91;;;27.44;52.86
48200;BME280;33990;44.602;10.976;2023-07-30T07:14:08;100758.13;;;27.40;52.93
48200;BME280;33990;44.602;10.976;2023-07-30T07:16:36;100759.53;;;27.36;52.85
48200;BME280;33990;44.602;10.976;2023-07-30T07:19:03;100750.34;;;27.37;52.94
48200;BME280;33990;44.602;10.976;2023-07-30T07:21:30;100755.78;;;27.37;52.71
48200;BME280;33990;44.602;10.976;2023-07-30T07:23:58;100760.38;;;27.36;52.35
48200;BME280;33990;44.602;10.976;2023-07-30T07:26:25;100753.25;;;27.35;52.26
48200;BME280;33990;44.602;10.976;2023-07-30T07:28:55;100753.25;;;27.35;52.30
48200;BME280;33990;44.602;10.976;2023-07-30T07:31:23;100757.66;;;27.36;52.43
48200;BME280;33990;44.602;10.976;2023-07-30T07:33:50;100756.63;;;27.38;52.68
48200;BME280;33990;44.602;10.976;2023-07-30T07:36:18;100757.09;;;27.41;52.88
48200;BME280;33990;44.602;10.976;2023-07-30T07:38:45;100756.72;;;27.44;52.92
48200;BME280;33990;44.602;10.976;2023-07-30T07:41:14;100759.25;;;27.46;52.66
48200;BME280;33990;44.602;10.976;2023-07-30T07:43:44;100761.81;;;27.47;52.74
48200;BME280;33990;44.602;10.976;2023-07-30T07:46:11;100762.63;;;27.48;52.85
48200;BME280;33990;44.602;10.976;2023-07-30T07:48:44;100758.41;;;27.45;52.81
48200;BME280;33990;44.602;10.976;2023-07-30T07:51:12;100752.81;;;27.47;52.95
48200;BME280;33990;44.602;10.976;2023-07-30T07:53:40;100753.25;;;27.50;52.95
48200;BME280;33990;44.602;10.976;2023-07-30T07:56:07;100748.47;;;27.52;52.86
48200;BME280;33990;44.602;10.976;2023-07-30T07:58:37;100745.75;;;27.52;52.98
48200;BME280;33990;44.602;10.976;2023-07-30T08:01:05;100747.44;;;27.53;52.82
48200;BME280;33990;44.602;10.976;2023-07-30T08:03:32;100753.91;;;27.52;51.95
48200;BME280;33990;44.602;10.976;2023-07-30T08:06:00;100760.41;;;27.51;51.69
48200;BME280;33990;44.602;10.976;2023-07-30T08:08:27;100765.16;;;27.49;51.46
48200;BME280;33990;44.602;10.976;2023-07-30T08:10:55;100766.00;;;27.50;51.44
48200;BME280;33990;44.602;10.976;2023-07-30T08:13:22;100764.78;;;27.52;51.67
48200;BME280;33990;44.602;10.976;2023-07-30T08:15:50;100769.03;;;27.55;51.80
48200;BME280;33990;44.602;10.976;2023-07-30T08:18:20;100770.50;;;27.57;52.10
48200;BME280;33990;44.602;10.976;2023-07-30T08:20:49;100776.63;;;27.59;52.46
48200;BME280;33990;44.602;10.976;2023-07-30T08:23:16;100771.19;;;27.59;52.27
48200;BME280;33990;44.602;10.976;2023-07-30T08:25:44;100774.75;;;27.60;52.36
48200;BME280;33990;44.602;10.976;2023-07-30T08:28:11;100784.56;;;27.61;52.34
48200;BME280;33990;44.602;10.976;2023-07-30T08:30:38;100779.34;;;27.59;52.07
48200;BME280;33990;44.602;10.976;2023-07-30T08:33:06;100769.47;;;27.58;52.09
48200;BME280;33990;44.602;10.976;2023-07-30T08:35:33;100770.34;;;27.59;52.17
48200;BME280;33990;44.602;10.976;2023-07-30T08:38:01;100773.91;;;27.59;52.07
48200;BME280;33990;44.602;10.976;2023-07-30T08:40:29;100770.13;;;27.60;51.91
48200;BME280;33990;44.602;10.976;2023-07-30T08:42:56;100769.94;;;27.62;51.97
48200;BME280;33990;44.602;10.976;2023-07-30T08:45:24;100763.28;;;27.65;51.89
48200;BME280;33990;44.602;10.976;2023-07-30T08:47:52;100772.09;;;27.67;51.71
48200;BME280;33990;44.602;10.976;2023-07-30T08:50:19;100761.88;;;27.69;52.02
48200;BME280;33990;44.602;10.976;2023-07-30T08:52:47;100758.78;;;27.72;51.91
48200;BME280;33990;44.602;10.976;2023-07-30T08:55:16;100766.78;;;27.73;52.37
48200;BME280;33990;44.602;10.976;2023-07-30T08:57:45;100767.25;;;27.77;52.04
48200;BME280;33990;44.602;10.976;2023-07-30T09:00:15;100768.94;;;27.78;52.66
48200;BME280;33990;44.602;10.976;2023-07-30T09:02:49;100768.94;;;27.78;52.17
48200;BME280;33990;44.602;10.976;2023-07-30T09:05:22;100766.22;;;27.78;51.97
48200;BME280;33990;44.602;10.976;2023-07-30T09:07:50;100771.84;;;27.76;51.63
48200;BME280;33990;44.602;10.976;2023-07-30T09:10:17;100758.41;;;27.75;51.48
48200;BME280;33990;44.602;10.976;2023-07-30T09:12:45;100762.00;;;27.75;51.48
48200;BME280;33990;44.602;10.976;2023-07-30T09:15:15;100756.38;;;27.77;51.51
48200;BME280;33990;44.602;10.976;2023-07-30T09:17:45;100758.06;;;27.78;51.50
48200;BME280;33990;44.602;10.976;2023-07-30T09:20:12;100753.28;;;27.80;51.46
48200;BME280;33990;44.602;10.976;2023-07-30T09:22:40;100751.56;;;27.79;51.83
48200;BME280;33990;44.602;10.976;2023-07-30T09:25:08;100747.16;;;27.78;51.48
48200;BME280;33990;44.602;10.976;2023-07-30T09:27:36;100750.56;;;27.80;51.61
48200;BME280;33990;44.602;10.976;2023-07-30T09:30:03;100747.84;;;27.80;51.92
48200;BME280;33990;44.602;10.976;2023-07-30T09:32:35;100744.06;;;27.81;51.67
48200;BME280;33990;44.602;10.976;2023-07-30T09:35:10;100740.31;;;27.82;51.85
48200;BME280;33990;44.602;10.976;2023-07-30T09:37:40;100738.44;;;27.82;51.94
48200;BME280;33990;44.602;10.976;2023-07-30T09:40:09;100740.13;;;27.83;52.09
48200;BME280;33990;44.602;10.976;2023-07-30T09:42:37;100736.56;;;27.83;52.05
48200;BME280;33990;44.602;10.976;2023-07-30T09:45:15;100738.91;;;27.86;52.23
48200;BME280;33990;44.602;10.976;2023-07-30T09:47:48;100737.03;;;27.87;52.22
48200;BME280;33990;44.602;10.976;2023-07-30T09:50:15;100737.03;;;27.87;52.36
48200;BME280;33990;44.602;10.976;2023-07-30T09:52:43;100731.41;;;27.88;52.53
48200;BME280;33990;44.602;10.976;2023-07-30T09:55:11;100730.56;;;27.88;52.41
48200;BME280;33990;44.602;10.976;2023-07-30T09:57:39;100745.00;;;27.88;52.28
48200;BME280;33990;44.602;10.976;2023-07-30T10:00:07;100734.75;;;27.90;52.56
48200;BME280;33990;44.602;10.976;2023-07-30T10:02:40;100737.31;;;27.92;52.70
48200;BME280;33990;44.602;10.976;2023-07-30T10:05:20;100739.84;;;27.93;52.86
48200;BME280;33990;44.602;10.976;2023-07-30T10:07:57;100733.56;;;27.93;52.80
48200;BME280;33990;44.602;10.976;2023-07-30T10:10:28;100736.91;;;27.95;52.63
48200;BME280;33990;44.602;10.976;2023-07-30T10:12:59;100736.31;;;27.99;52.78
48200;BME280;33990;44.602;10.976;2023-07-30T10:15:27;100734.75;;;28.05;53.38
48200;BME280;33990;44.602;10.976;2023-07-30T10:17:56;100728.25;;;28.06;52.85
48200;BME280;33990;44.602;10.976;2023-07-30T10:20:28;100728.03;;;28.07;53.18
48200;BME280;33990;44.602;10.976;2023-07-30T10:22:58;100736.88;;;28.09;53.06
48200;BME280;33990;44.602;10.976;2023-07-30T10:25:53;100730.59;;;28.09;53.39
48200;BME280;33990;44.602;10.976;2023-07-30T10:28:33;100733.31;;;28.09;53.07
48200;BME280;33990;44.602;10.976;2023-07-30T10:31:04;100742.31;;;28.09;53.12
48200;BME280;33990;44.602;10.976;2023-07-30T10:33:51;100733.31;;;28.09;53.12
48200;BME280;33990;44.602;10.976;2023-07-30T10:36:42;100738.94;;;28.07;53.13
48200;BME280;33990;44.602;10.976;2023-07-30T10:39:20;100734.53;;;28.06;52.74
48200;BME280;33990;44.602;10.976;2023-07-30T10:41:50;100730.13;;;28.05;52.55
48200;BME280;33990;44.602;10.976;2023-07-30T10:44:29;100720.94;;;28.06;52.56
48200;BME280;33990;44.602;10.976;2023-07-30T10:46:59;100723.66;;;28.06;52.62
48200;BME280;33990;44.602;10.976;2023-07-30T10:49:26;100720.34;;;28.11;52.60
48200;BME280;33990;44.602;10.976;2023-07-30T10:51:55;100716.66;;;28.19;52.90
48200;BME280;33990;44.602;10.976;2023-07-30T10:54:24;100713.34;;;28.23;52.62
48200;BME280;33990;44.602;10.976;2023-07-30T10:56:53;100716.94;;;28.24;52.80
48200;BME280;33990;44.602;10.976;2023-07-30T10:59:21;100710.63;;;28.23;53.08
48200;BME280;33990;44.602;10.976;2023-07-30T11:01:49;100708.78;;;28.24;53.14
48200;BME280;33990;44.602;10.976;2023-07-30T11:04:19;100715.06;;;28.24;53.18
48200;BME280;33990;44.602;10.976;2023-07-30T11:06:47;100707.91;;;28.23;53.03
48200;BME280;33990;44.602;10.976;2023-07-30T11:09:23;100714.84;;;28.26;53.10
48200;BME280;33990;44.602;10.976;2023-07-30T11:11:53;100699.63;;;28.31;51.86
48200;BME280;33990;44.602;10.976;2023-07-30T11:14:23;100707.25;;;28.36;51.74
48200;BME280;33990;44.602;10.976;2023-07-30T11:16:57;100700.63;;;28.45;51.19
48200;BME280;33990;44.602;10.976;2023-07-30T11:19:26;100699.38;;;28.48;51.14
48200;BME280;33990;44.602;10.976;2023-07-30T11:21:56;100699.38;;;28.48;51.18
48200;BME280;33990;44.602;10.976;2023-07-30T11:24:34;100691.41;;;28.46;51.77
48200;BME280;33990;44.602;10.976;2023-07-30T11:27:02;100691.81;;;28.43;51.52
48200;BME280;33990;44.602;10.976;2023-07-30T11:29:30;100686.34;;;28.43;52.01
48200;BME280;33990;44.602;10.976;2023-07-30T11:31:58;100674.84;;;28.41;51.81
48200;BME280;33990;44.602;10.976;2023-07-30T11:34:27;100680.47;;;28.40;52.23
48200;BME280;33990;44.602;10.976;2023-07-30T11:36:55;100680.66;;;28.38;52.12
48200;BME280;33990;44.602;10.976;2023-07-30T11:39:25;100686.09;;;28.38;51.78
48200;BME280;33990;44.602;10.976;2023-07-30T11:41:52;100680.66;;;28.38;51.94
48200;BME280;33990;44.602;10.976;2023-07-30T11:44:34;100674.38;;;28.38;51.92
48200;BME280;33990;44.602;10.976;2023-07-30T11:47:02;100672.50;;;28.38;52.38
48200;BME280;33990;44.602;10.976;2023-07-30T11:49:31;100672.50;;;28.38;52.08
48200;BME280;33990;44.602;10.976;2023-07-30T11:52:08;100669.78;;;28.38;52.19
48200;BME280;33990;44.602;10.976;2023-07-30T11:54:37;100674.84;;;28.41;52.21
48200;BME280;33990;44.602;10.976;2023-07-30T11:57:05;100674.00;;;28.41;52.00
48200;BME280;33990;44.602;10.976;2023-07-30T11:59:32;100668.56;;;28.41;51.58
48200;BME280;33990;44.602;10.976;2023-07-30T12:02:00;100672.09;;;28.41;51.68
48200;BME280;33990;44.602;10.976;2023-07-30T12:04:38;100672.09;;;28.41;51.56
48200;BME280;33990;44.602;10.976;2023-07-30T12:07:10;100672.09;;;28.41;51.42
48200;BME280;33990;44.602;10.976;2023-07-30T12:09:37;100661.41;;;28.40;51.70
48200;BME280;33990;44.602;10.976;2023-07-30T12:12:05;100667.72;;;28.40;51.60
48200;BME280;33990;44.602;10.976;2023-07-30T12:14:43;100659.72;;;28.39;51.91
48200;BME280;33990;44.602;10.976;2023-07-30T12:17:11;100662.44;;;28.39;51.96
48200;BME280;33990;44.602;10.976;2023-07-30T12:19:39;100659.94;;;28.37;52.25
48200;BME280;33990;44.602;10.976;2023-07-30T12:22:08;100662.22;;;28.19;51.22
48200;BME280;33990;44.602;10.976;2023-07-30T12:24:35;100648.53;;;27.91;51.59
48200;BME280;33990;44.602;10.976;2023-07-30T12:27:03;100656.44;;;27.71;50.80
48200;BME280;33990;44.602;10.976;2023-07-30T12:29:30;100656.41;;;27.49;50.71
48200;BME280;33990;44.602;10.976;2023-07-30T12:31:58;100644.22;;;27.30;49.75
48200;BME280;33990;44.602;10.976;2023-07-30T12:34:30;100638.81;;;27.16;49.47
48200;BME280;33990;44.602;10.976;2023-07-30T12:36:57;100633.19;;;27.02;48.89
48200;BME280;33990;44.602;10.976;2023-07-30T12:39:25;100629.25;;;26.90;48.70
48200;BME280;33990;44.602;10.976;2023-07-30T12:41:53;100633.91;;;26.81;47.94
48200;BME280;33990;44.602;10.976;2023-07-30T12:44:21;100622.13;;;26.74;48.07
48200;BME280;33990;44.602;10.976;2023-07-30T12:46:49;100619.28;;;26.68;47.57